createdAt,value
2022-08-23T00:02:23.507Z,25.35
2022-08-23T00:05:03.643Z,25.40
2022-08-23T00:07:38.468Z,25.14
2022-08-23T00:10:06.963Z,24.99
2022-08-23T00:12:33.715Z,24.77
2022-08-23T00:15:00.823Z,24.60
2022-08-23T00:17:34.398Z,24.55
2022-08-23T00:20:04.363Z,24.71
2022-08-23T00:22:30.862Z,24.73
2022-08-23T00:24:57.401Z,24.75
2022-08-23T00:27:23.917Z,24.55
2022-08-23T00:29:52.770Z,24.22
2022-08-23T00:32:31.932Z,24.35
2022-08-23T00:34:59.775Z,24.40
2022-08-23T00:37:27.229Z,24.34
2022-08-23T00:39:53.847Z,24.44
2022-08-23T00:42:41.909Z,24.68
2022-08-23T00:45:29.187Z,24.59
2022-08-23T00:47:56.031Z,24.52
2022-08-23T00:50:37.069Z,24.60
2022-08-23T00:53:16.250Z,24.62
2022-08-23T00:55:45.613Z,24.48
2022-08-23T00:58:14.260Z,24.62
2022-08-23T01:00:40.837Z,24.70
2022-08-23T01:03:10.145Z,24.61
2022-08-23T01:05:43.110Z,24.53
2022-08-23T01:08:09.674Z,24.67
2022-08-23T01:10:48.032Z,24.65
2022-08-23T01:13:21.429Z,24.42
2022-08-23T01:15:52.216Z,24.43
2022-08-23T01:18:22.057Z,24.52
2022-08-23T01:21:15.021Z,24.44
2022-08-23T01:23:47.793Z,24.37
2022-08-23T01:26:21.750Z,24.26
2022-08-23T01:28:49.145Z,24.34
2022-08-23T01:31:16.555Z,24.24
2022-08-23T01:33:43.727Z,24.10
2022-08-23T01:36:13.147Z,23.92
2022-08-23T01:38:39.777Z,23.77
2022-08-23T01:41:09.665Z,23.62
2022-08-23T01:43:36.219Z,23.62
2022-08-23T01:46:14.688Z,23.76
2022-08-23T01:48:41.437Z,23.66
2022-08-23T01:51:08.047Z,23.51
2022-08-23T01:53:34.608Z,23.59
2022-08-23T01:56:03.904Z,23.53
2022-08-23T01:58:32.340Z,23.54
2022-08-23T02:00:59.293Z,23.45
2022-08-23T02:03:26.042Z,23.43
2022-08-23T02:08:37.827Z,23.54
2022-08-23T02:11:12.792Z,23.50
2022-08-23T02:13:39.378Z,23.60
2022-08-23T02:16:06.126Z,23.38
2022-08-23T02:18:32.716Z,23.56
2022-08-23T02:21:00.389Z,23.56
2022-08-23T02:23:27.186Z,23.47
2022-08-23T02:25:54.148Z,23.49
2022-08-23T02:28:22.900Z,23.35
2022-08-23T02:30:49.875Z,23.48
2022-08-23T02:33:16.771Z,23.25
2022-08-23T02:35:43.938Z,23.25
2022-08-23T02:38:11.947Z,23.26
2022-08-23T02:40:39.477Z,23.26
2022-08-23T02:43:06.630Z,23.21
2022-08-23T02:45:34.006Z,23.04
2022-08-23T02:48:01.618Z,23.11
2022-08-23T02:50:28.328Z,23.22
2022-08-23T02:52:55.516Z,23.07
2022-08-23T02:55:22.113Z,23.15
2022-08-23T02:57:48.739Z,22.98
2022-08-23T03:00:16.521Z,23.05
2022-08-23T03:02:43.324Z,23.12
2022-08-23T03:05:11.118Z,23.19
2022-08-23T03:07:38.619Z,23.06
2022-08-23T03:10:07.285Z,23.13
2022-08-23T03:12:33.839Z,22.57
2022-08-23T03:15:00.405Z,22.90
2022-08-23T03:17:27.320Z,22.77
2022-08-23T03:19:53.975Z,22.88
2022-08-23T03:22:22.994Z,22.38
2022-08-23T03:24:49.579Z,22.70
2022-08-23T03:27:16.087Z,22.16
2022-08-23T03:29:42.810Z,22.05
2022-08-23T03:32:09.368Z,22.10
2022-08-23T03:34:36.709Z,22.38
2022-08-23T03:37:03.381Z,22.30
2022-08-23T03:39:29.915Z,21.96
2022-08-23T03:41:56.481Z,22.16
2022-08-23T03:44:23.001Z,22.04
2022-08-23T03:46:50.469Z,22.30
2022-08-23T03:49:17.078Z,22.49
2022-08-23T03:51:43.587Z,22.32
2022-08-23T03:54:10.909Z,22.28
2022-08-23T03:56:40.155Z,22.12
2022-08-23T03:59:13.516Z,22.06
2022-08-23T04:01:40.228Z,22.00
2022-08-23T04:04:06.876Z,21.82
2022-08-23T04:06:33.417Z,21.93
2022-08-23T04:09:00.701Z,22.02
2022-08-23T04:11:27.708Z,22.07
2022-08-23T04:13:54.341Z,21.67
2022-08-23T04:16:21.089Z,21.72
2022-08-23T04:18:48.411Z,21.77
2022-08-23T04:21:18.501Z,21.51
2022-08-23T04:23:45.689Z,21.64
2022-08-23T04:26:12.407Z,21.45
2022-08-23T04:28:40.397Z,21.40
2022-08-23T04:31:07.159Z,21.65
2022-08-23T04:33:34.405Z,21.74
2022-08-23T04:36:01.804Z,21.53
2022-08-23T04:38:28.893Z,21.75
2022-08-23T04:41:14.758Z,21.93
2022-08-23T04:43:46.740Z,21.80
2022-08-23T04:46:15.446Z,21.99
2022-08-23T04:48:43.086Z,21.82
2022-08-23T04:51:09.602Z,21.88
2022-08-23T04:53:36.207Z,21.62
2022-08-23T04:56:04.271Z,21.76
2022-08-23T04:58:32.767Z,21.97
2022-08-23T05:01:03.878Z,22.02
2022-08-23T05:03:31.892Z,22.03
2022-08-23T05:05:58.587Z,22.14
2022-08-23T05:08:25.496Z,22.24
2022-08-23T05:10:52.438Z,22.29
2022-08-23T05:13:19.065Z,22.31
2022-08-23T05:15:46.121Z,22.38
2022-08-23T05:18:13.239Z,22.37
2022-08-23T05:20:39.719Z,22.43
2022-08-23T05:23:06.353Z,22.47
2022-08-23T05:25:52.455Z,22.61
2022-08-23T05:28:23.350Z,22.74
2022-08-23T05:30:58.545Z,22.78
2022-08-23T05:33:27.518Z,22.53
2022-08-23T05:35:54.571Z,22.65
2022-08-23T05:38:21.730Z,22.88
2022-08-23T05:40:55.169Z,22.92
2022-08-23T05:43:22.522Z,23.06
2022-08-23T05:45:49.061Z,22.85
2022-08-23T05:48:15.937Z,23.25
2022-08-23T05:50:45.047Z,23.09
2022-08-23T05:53:11.694Z,23.16
2022-08-23T05:55:38.608Z,23.17
2022-08-23T05:58:05.478Z,23.13
2022-08-23T06:00:37.999Z,23.12
2022-08-23T06:03:07.210Z,23.33
2022-08-23T06:05:34.124Z,23.60
2022-08-23T06:08:00.982Z,23.64
2022-08-23T06:10:27.693Z,23.58
2022-08-23T06:12:54.305Z,23.75
2022-08-23T06:15:20.931Z,23.85
2022-08-23T06:17:47.445Z,23.74
2022-08-23T06:20:15.795Z,23.66
2022-08-23T06:22:42.411Z,23.95
2022-08-23T06:25:09.767Z,24.24
2022-08-23T06:27:36.621Z,24.38
2022-08-23T06:30:03.786Z,24.45
2022-08-23T06:32:30.391Z,24.65
2022-08-23T06:35:33.337Z,24.62
2022-08-23T06:37:43.562Z,24.89
2022-08-23T06:40:10.530Z,24.95
2022-08-23T06:42:38.625Z,25.17
2022-08-23T06:45:06.455Z,25.21
2022-08-23T06:47:32.992Z,25.26
2022-08-23T06:49:59.767Z,25.35
2022-08-23T06:52:27.503Z,25.59
2022-08-23T06:54:54.674Z,24.98
2022-08-23T06:57:21.337Z,25.20
2022-08-23T06:59:49.696Z,25.61
2022-08-23T07:02:16.863Z,25.81
2022-08-23T07:04:43.458Z,25.09
2022-08-23T07:07:11.801Z,25.29
2022-08-23T07:09:39.546Z,25.56
2022-08-23T07:12:06.597Z,25.80
2022-08-23T07:14:33.370Z,26.17
2022-08-23T07:17:01.263Z,26.05
2022-08-23T07:19:31.410Z,26.49
2022-08-23T07:21:58.757Z,26.72
2022-08-23T07:24:29.470Z,26.73
2022-08-23T07:27:01.200Z,26.93
2022-08-23T07:29:28.356Z,26.89
2022-08-23T07:31:56.174Z,27.26
2022-08-23T07:34:23.689Z,27.43
2022-08-23T07:36:51.183Z,27.67
2022-08-23T07:39:18.512Z,27.68
2022-08-23T07:41:46.764Z,27.80
2022-08-23T07:44:14.312Z,28.16
2022-08-23T07:46:46.062Z,28.50
2022-08-23T07:49:13.593Z,28.36
2022-08-23T07:51:42.118Z,28.57
2022-08-23T07:54:10.277Z,28.96
2022-08-23T07:56:37.597Z,28.93
2022-08-23T07:59:05.674Z,29.16
2022-08-23T08:01:32.434Z,28.24
2022-08-23T08:04:00.987Z,29.00
2022-08-23T08:06:35.426Z,29.50
2022-08-23T08:09:03.632Z,29.89
2022-08-23T08:11:34.778Z,29.68
2022-08-23T08:14:07.615Z,29.38
2022-08-23T08:16:42.644Z,29.90
2022-08-23T08:19:11.268Z,30.41
2022-08-23T08:21:42.276Z,30.86
2022-08-23T08:24:12.907Z,31.07
2022-08-23T08:26:40.504Z,31.40
2022-08-23T08:29:07.233Z,30.74
2022-08-23T08:31:36.315Z,31.45
2022-08-23T08:34:02.955Z,31.87
2022-08-23T08:36:44.761Z,30.78
2022-08-23T08:39:19.970Z,30.81
2022-08-23T08:42:13.937Z,30.23
2022-08-23T08:44:47.420Z,31.38
2022-08-23T08:47:17.589Z,31.86
2022-08-23T08:50:21.143Z,31.84
2022-08-23T08:52:52.832Z,32.70
2022-08-23T08:55:24.533Z,33.08
2022-08-23T08:57:53.566Z,33.71
2022-08-23T09:00:29.393Z,33.18
2022-08-23T09:02:57.464Z,33.69
2022-08-23T09:05:27.634Z,34.78
2022-08-23T09:08:18.722Z,35.59
2022-08-23T09:10:51.678Z,35.92
2022-08-23T09:13:33.546Z,35.49
2022-08-23T09:16:00.145Z,36.73
2022-08-23T09:18:27.766Z,37.17
2022-08-23T09:20:55.556Z,37.93
2022-08-23T09:23:29.467Z,38.36
2022-08-23T09:26:03.819Z,36.55
2022-08-23T09:28:34.321Z,36.99
2022-08-23T09:31:02.148Z,38.29
2022-08-23T09:33:47.987Z,42.27
2022-08-23T09:36:25.503Z,45.59
2022-08-23T09:39:07.599Z,47.29
2022-08-23T09:41:37.737Z,48.91
2022-08-23T09:44:07.739Z,50.13
2022-08-23T09:46:39.162Z,53.85
2022-08-23T09:49:28.238Z,53.12
2022-08-23T09:51:56.910Z,57.22
2022-08-23T09:54:30.602Z,54.84
2022-08-23T09:57:02.877Z,59.02
2022-08-23T09:59:45.594Z,57.70
2022-08-23T10:02:21.225Z,52.43
2022-08-23T10:04:56.885Z,57.87
2022-08-23T10:07:40.414Z,60.62
2022-08-23T10:10:23.860Z,61.80
2022-08-23T10:12:51.707Z,59.74
2022-08-23T10:15:18.547Z,55.01
2022-08-23T10:18:09.551Z,58.99
2022-08-23T10:20:41.862Z,61.77
2022-08-23T10:23:24.725Z,63.52
2022-08-23T10:25:55.488Z,63.09
2022-08-23T10:29:00.045Z,63.54
2022-08-23T10:31:31.280Z,59.60
2022-08-23T10:34:21.259Z,63.42
2022-08-23T10:37:06.317Z,62.06
2022-08-23T10:39:33.170Z,56.63
2022-08-23T10:42:07.849Z,59.06
2022-08-23T10:44:46.800Z,58.62
2022-08-23T10:47:41.304Z,61.19
2022-08-23T10:50:15.246Z,63.44
2022-08-23T10:52:55.168Z,65.13
2022-08-23T10:55:43.872Z,66.17
2022-08-23T10:58:15.614Z,64.75
2022-08-23T11:00:42.725Z,66.20
2022-08-23T11:03:28.916Z,66.94
2022-08-23T11:06:24.990Z,67.07
2022-08-23T11:08:59.861Z,66.29
2022-08-23T11:11:47.659Z,66.77
2022-08-23T11:14:39.971Z,62.14
2022-08-23T11:17:08.906Z,60.65
2022-08-23T11:19:56.230Z,59.39
2022-08-23T11:22:26.094Z,57.20
2022-08-23T11:25:06.019Z,57.54
2022-08-23T11:27:41.117Z,61.37
2022-08-23T11:30:32.846Z,59.66
2022-08-23T11:33:15.310Z,54.37
2022-08-23T11:35:43.425Z,54.68
2022-08-23T11:38:11.670Z,54.65
2022-08-23T11:40:41.208Z,55.00
2022-08-23T11:43:20.626Z,56.31
2022-08-23T11:45:47.599Z,57.36
2022-08-23T11:48:35.189Z,60.09
2022-08-23T11:51:22.240Z,56.74
2022-08-23T11:53:54.547Z,57.65
2022-08-23T11:56:28.247Z,60.80
2022-08-23T11:59:17.119Z,59.63
2022-08-23T12:01:45.642Z,60.85
2022-08-23T12:04:42.219Z,58.16
2022-08-23T12:07:13.159Z,53.67
2022-08-23T12:09:43.020Z,50.07
2022-08-23T12:12:27.136Z,49.50
2022-08-23T12:14:56.756Z,52.25
2022-08-23T12:17:25.908Z,50.66
2022-08-23T12:19:54.036Z,48.91
2022-08-23T12:22:23.912Z,46.66
2022-08-23T12:25:08.050Z,45.15
2022-08-23T12:27:44.726Z,44.11
2022-08-23T12:30:50.416Z,42.75
2022-08-23T12:33:32.163Z,41.29
2022-08-23T12:35:58.677Z,40.61
2022-08-23T12:38:56.677Z,40.26
2022-08-23T12:41:29.389Z,40.29
2022-08-23T12:44:02.021Z,39.78
2022-08-23T12:46:40.011Z,39.80
2022-08-23T12:49:09.083Z,39.94
2022-08-23T12:51:42.036Z,39.57
2022-08-23T12:54:14.080Z,39.39
2022-08-23T12:56:40.757Z,39.38
2022-08-23T12:59:27.592Z,38.87
2022-08-23T13:01:54.648Z,38.28
2022-08-23T13:04:21.565Z,37.77
2022-08-23T13:06:59.232Z,37.94
2022-08-23T13:09:33.011Z,37.97
2022-08-23T13:12:00.923Z,38.22
2022-08-23T13:14:34.352Z,38.33
2022-08-23T13:17:39.975Z,37.78
2022-08-23T13:20:06.555Z,37.40
2022-08-23T13:22:34.339Z,37.05
2022-08-23T13:25:27.458Z,36.89
2022-08-23T13:27:59.359Z,37.23
2022-08-23T13:30:37.639Z,37.80
2022-08-23T13:33:04.216Z,36.88
2022-08-23T13:35:41.211Z,36.85
2022-08-23T13:38:08.109Z,37.27
2022-08-23T13:40:55.769Z,37.25
2022-08-23T13:43:55.296Z,36.55
2022-08-23T13:46:24.709Z,36.71
2022-08-23T13:48:56.788Z,37.04
2022-08-23T13:51:38.811Z,36.84
2022-08-23T13:54:10.213Z,36.77
2022-08-23T13:56:49.073Z,36.79
2022-08-23T13:59:34.379Z,36.07
2022-08-23T14:02:03.341Z,36.68
2022-08-23T14:04:30.122Z,37.29
2022-08-23T14:06:56.686Z,37.73
2022-08-23T14:09:23.286Z,38.61
2022-08-23T14:11:53.801Z,39.58
2022-08-23T14:14:20.584Z,39.03
2022-08-23T14:16:47.211Z,38.92
2022-08-23T14:19:16.714Z,38.84
2022-08-23T14:22:00.435Z,38.31
2022-08-23T14:24:27.205Z,38.39
2022-08-23T14:26:55.373Z,37.29
2022-08-23T14:29:23.493Z,37.58
2022-08-23T14:31:51.564Z,37.85
2022-08-23T14:34:18.414Z,37.93
2022-08-23T14:38:00.232Z,37.78
2022-08-23T14:39:31.470Z,37.82
2022-08-23T14:41:58.117Z,37.75
2022-08-23T14:44:27.901Z,37.97
2022-08-23T14:46:56.842Z,37.66
2022-08-23T14:49:23.415Z,37.27
2022-08-23T14:51:50.442Z,37.12
2022-08-23T14:54:22.649Z,36.86
2022-08-23T14:56:49.545Z,36.28
2022-08-23T14:59:16.285Z,36.37
2022-08-23T15:01:42.981Z,35.71
2022-08-23T15:04:10.081Z,35.86
2022-08-23T15:06:54.969Z,35.46
2022-08-23T15:09:27.259Z,35.56
2022-08-23T15:14:41.433Z,36.07
2022-08-23T15:17:07.988Z,35.81
2022-08-23T15:19:34.513Z,36.66
2022-08-23T15:22:06.475Z,36.29
2022-08-23T15:24:45.574Z,37.13
2022-08-23T15:27:12.443Z,36.80
2022-08-23T15:29:39.061Z,37.53
2022-08-23T15:32:05.742Z,37.60
2022-08-23T15:34:35.449Z,36.57
2022-08-23T15:37:02.068Z,36.59
2022-08-23T15:39:29.938Z,36.61
2022-08-23T15:41:56.474Z,36.03
2022-08-23T15:44:23.243Z,36.18
2022-08-23T15:46:49.983Z,36.01
2022-08-23T15:49:18.498Z,36.28
2022-08-23T15:51:45.754Z,36.39
2022-08-23T15:54:12.470Z,36.36
2022-08-23T15:56:45.188Z,36.67
2022-08-23T15:59:14.471Z,36.91
2022-08-23T16:01:42.006Z,36.19
2022-08-23T16:04:09.261Z,36.02
2022-08-23T16:06:37.253Z,35.96
2022-08-23T16:09:05.961Z,35.50
2022-08-23T16:11:33.080Z,35.32
2022-08-23T16:13:59.646Z,35.82
2022-08-23T16:16:30.840Z,36.03
2022-08-23T16:18:59.644Z,35.97
2022-08-23T16:21:28.866Z,35.66
2022-08-23T16:23:57.449Z,35.93
2022-08-23T16:26:32.345Z,35.94
2022-08-23T16:29:03.008Z,35.91
2022-08-23T16:31:37.420Z,35.97
2022-08-23T16:34:14.036Z,35.69
2022-08-23T16:36:48.257Z,35.40
2022-08-23T16:39:16.025Z,35.46
2022-08-23T16:41:42.624Z,35.72
2022-08-23T16:44:09.826Z,35.65
2022-08-23T16:46:36.661Z,35.50
2022-08-23T16:49:03.801Z,35.35
2022-08-23T16:51:30.375Z,35.63
2022-08-23T16:54:02.882Z,35.49
2022-08-23T16:56:33.990Z,35.24
2022-08-23T16:59:01.618Z,34.95
2022-08-23T17:01:29.372Z,34.41
2022-08-23T17:03:56.185Z,35.01
2022-08-23T17:06:22.766Z,35.19
2022-08-23T17:08:49.571Z,34.59
2022-08-23T17:11:19.202Z,34.69
2022-08-23T17:13:46.207Z,34.62
2022-08-23T17:16:12.907Z,34.03
2022-08-23T17:18:39.992Z,34.00
2022-08-23T17:21:07.432Z,33.97
2022-08-23T17:23:39.254Z,33.92
2022-08-23T17:26:08.187Z,33.52
2022-08-23T17:28:35.131Z,33.78
2022-08-23T17:31:01.961Z,33.64
2022-08-23T17:33:28.632Z,33.52
2022-08-23T17:35:55.144Z,33.17
2022-08-23T17:38:21.637Z,33.27
2022-08-23T17:40:49.505Z,33.13
2022-08-23T17:43:16.271Z,32.68
2022-08-23T17:45:46.580Z,32.92
2022-08-23T17:48:14.742Z,32.78
2022-08-23T17:50:43.560Z,32.20
2022-08-23T17:53:11.272Z,32.12
2022-08-23T17:55:39.229Z,32.12
2022-08-23T17:58:07.565Z,32.10
2022-08-23T18:00:35.800Z,31.78
2022-08-23T18:03:03.291Z,31.89
2022-08-23T18:05:31.468Z,31.94
2022-08-23T18:07:57.975Z,31.86
2022-08-23T18:10:25.326Z,31.82
2022-08-23T18:12:52.275Z,31.67
2022-08-23T18:15:18.935Z,31.51
2022-08-23T18:17:45.816Z,31.32
2022-08-23T18:20:13.037Z,31.26
2022-08-23T18:22:40.041Z,31.35
2022-08-23T18:25:09.241Z,31.23
2022-08-23T18:27:54.402Z,31.20
2022-08-23T18:30:21.461Z,31.07
2022-08-23T18:32:47.981Z,30.96
2022-08-23T18:35:15.008Z,30.81
2022-08-23T18:37:41.952Z,30.86
2022-08-23T18:40:10.057Z,30.67
2022-08-23T18:42:37.407Z,30.73
2022-08-23T18:45:05.303Z,30.67
2022-08-23T18:47:32.198Z,30.51
2022-08-23T18:49:58.695Z,30.56
2022-08-23T18:52:27.481Z,30.30
2022-08-23T18:54:57.434Z,30.31
2022-08-23T18:57:24.026Z,29.96
2022-08-23T18:59:50.528Z,30.09
2022-08-23T19:02:17.667Z,30.04
2022-08-23T19:04:44.398Z,30.07
2022-08-23T19:07:11.013Z,29.94
2022-08-23T19:09:38.113Z,29.76
2022-08-23T19:12:06.382Z,29.73
2022-08-23T19:14:35.497Z,29.64
2022-08-23T19:17:04.734Z,29.72
2022-08-23T19:19:31.383Z,29.52
2022-08-23T19:21:58.391Z,29.53
2022-08-23T19:24:25.202Z,29.56
2022-08-23T19:26:52.508Z,29.50
2022-08-23T19:29:20.575Z,29.31
2022-08-23T19:31:48.446Z,28.72
2022-08-23T19:34:17.409Z,28.73
2022-08-23T19:36:48.263Z,28.65
2022-08-23T19:39:18.552Z,28.71
2022-08-23T19:41:46.224Z,28.75
2022-08-23T19:44:12.854Z,28.84
2022-08-23T19:46:42.052Z,28.75
2022-08-23T19:49:10.297Z,28.75
2022-08-23T19:51:37.105Z,28.64
2022-08-23T19:54:04.770Z,28.65
2022-08-23T19:56:41.271Z,28.84
2022-08-23T19:59:12.111Z,28.64
2022-08-23T20:01:39.524Z,28.90
2022-08-23T20:04:09.114Z,28.76
2022-08-23T20:06:35.836Z,28.78
2022-08-23T20:09:02.975Z,28.68
2022-08-23T20:11:31.842Z,28.72
2022-08-23T20:14:00.163Z,28.48
2022-08-23T20:16:27.658Z,28.66
2022-08-23T20:18:55.292Z,28.86
2022-08-23T20:21:23.579Z,28.89
2022-08-23T20:24:04.241Z,28.83
2022-08-23T20:26:40.894Z,28.82
2022-08-23T20:29:19.235Z,28.72
2022-08-23T20:31:53.181Z,28.50
2022-08-23T20:34:20.060Z,28.41
2022-08-23T20:36:46.611Z,28.21
2022-08-23T20:39:14.300Z,28.44
2022-08-23T20:41:41.460Z,28.39
2022-08-23T20:44:09.270Z,28.34
2022-08-23T20:46:35.943Z,28.20
2022-08-23T20:49:03.091Z,28.39
2022-08-23T20:51:29.734Z,28.23
2022-08-23T20:53:56.806Z,28.22
2022-08-23T20:56:24.133Z,28.31
2022-08-23T20:58:51.443Z,28.18
2022-08-23T21:01:18.872Z,28.10
2022-08-23T21:03:45.779Z,28.02
2022-08-23T21:06:21.841Z,28.12
2022-08-23T21:08:53.440Z,28.06
2022-08-23T21:11:21.995Z,28.07
2022-08-23T21:13:48.613Z,27.85
2022-08-23T21:16:16.321Z,27.98
2022-08-23T21:18:42.942Z,27.89
2022-08-23T21:21:10.101Z,27.94
2022-08-23T21:23:37.371Z,27.58
2022-08-23T21:26:04.555Z,27.61
2022-08-23T21:28:32.717Z,27.74
2022-08-23T21:31:11.843Z,27.70
2022-08-23T21:33:40.297Z,27.64
2022-08-23T21:36:07.730Z,27.65
2022-08-23T21:38:34.582Z,27.45
2022-08-23T21:41:04.619Z,27.65
2022-08-23T21:43:32.761Z,27.70
2022-08-23T21:45:59.305Z,27.36
2022-08-23T21:48:25.916Z,27.55
2022-08-23T21:50:52.525Z,27.63
2022-08-23T21:53:20.974Z,27.68
2022-08-23T21:55:47.901Z,27.07
2022-08-23T21:58:14.469Z,26.79
2022-08-23T22:00:41.454Z,27.03
2022-08-23T22:03:09.109Z,26.96
2022-08-23T22:05:43.480Z,27.08
2022-08-23T22:08:10.817Z,26.90
2022-08-23T22:10:44.891Z,27.18
2022-08-23T22:13:25.781Z,27.46
2022-08-23T22:15:52.343Z,27.44
2022-08-23T22:18:19.486Z,27.67
2022-08-23T22:20:46.483Z,27.68
2022-08-23T22:23:13.278Z,27.60
2022-08-23T22:25:39.840Z,27.59
2022-08-23T22:28:06.364Z,26.79
2022-08-23T22:30:32.871Z,26.92
2022-08-23T22:32:59.567Z,27.17
2022-08-23T22:35:26.100Z,26.77
2022-08-23T22:38:12.240Z,27.00
2022-08-23T22:40:39.436Z,27.18
2022-08-23T22:43:06.894Z,26.77
2022-08-23T22:45:33.607Z,27.07
2022-08-23T22:48:00.552Z,27.17
2022-08-23T22:50:27.141Z,27.18
2022-08-23T22:52:53.647Z,27.04
2022-08-23T22:55:21.551Z,27.32
2022-08-23T22:57:48.363Z,27.03
2022-08-23T23:00:16.151Z,27.05
2022-08-23T23:02:42.996Z,26.94
2022-08-23T23:05:09.563Z,26.99
2022-08-23T23:08:11.378Z,26.66
2022-08-23T23:10:37.901Z,26.52
2022-08-23T23:13:04.425Z,26.70
2022-08-23T23:15:30.924Z,26.77
2022-08-23T23:17:57.638Z,26.83
2022-08-23T23:20:40.764Z,26.68
2022-08-23T23:23:10.014Z,26.61
2022-08-23T23:25:40.697Z,26.48
2022-08-23T23:28:07.931Z,26.50
2022-08-23T23:30:35.730Z,26.77
2022-08-23T23:33:02.945Z,26.68
2022-08-23T23:35:29.790Z,26.70
2022-08-23T23:37:57.161Z,26.72
2022-08-23T23:40:24.432Z,26.64
2022-08-23T23:42:52.163Z,26.40
2022-08-23T23:45:21.413Z,26.50
2022-08-23T23:47:48.145Z,26.25
2022-08-23T23:50:15.257Z,26.54
2022-08-23T23:52:42.357Z,26.47
2022-08-23T23:55:11.869Z,26.57
2022-08-23T23:57:38.571Z,26.29
